createdAt,value
2019-01-04T00:00:40.453Z,-0.94
2019-01-04T00:01:41.366Z,-0.95
2019-01-04T00:02:40.362Z,-0.97
2019-01-04T00:03:40.641Z,-0.96
2019-01-04T00:04:40.964Z,-0.96
2019-01-04T00:05:41.346Z,-0.97
2019-01-04T00:06:41.678Z,-0.97
2019-01-04T00:07:42.171Z,-0.97
2019-01-04T00:08:42.539Z,-0.98
2019-01-04T00:09:43.315Z,-1.00
2019-01-04T00:10:43.209Z,-1.00
2019-01-04T00:11:43.807Z,-1.01
2019-01-04T00:12:44.063Z,-1.02
2019-01-04T00:13:43.968Z,-1.03
2019-01-04T00:14:43.886Z,-1.06
2019-01-04T00:15:44.287Z,-1.07
2019-01-04T00:16:44.620Z,-1.08
2019-01-04T00:17:45.033Z,-1.11
2019-01-04T00:18:45.386Z,-1.11
2019-01-04T00:19:45.622Z,-1.11
2019-01-04T00:20:45.946Z,-1.11
2019-01-04T00:21:46.607Z,-1.08
2019-01-04T00:22:46.416Z,-1.07
2019-01-04T00:23:46.697Z,-1.07
2019-01-04T00:24:46.958Z,-1.07
2019-01-04T00:25:47.249Z,-1.07
2019-01-04T00:26:47.550Z,-1.07
2019-01-04T00:27:47.807Z,-1.07
2019-01-04T00:28:48.765Z,-1.06
2019-01-04T00:29:49.486Z,-1.03
2019-01-04T00:30:49.710Z,-1.05
2019-01-04T00:31:49.808Z,-1.03
2019-01-04T00:32:50.126Z,-1.03
2019-01-04T00:33:50.535Z,-1.01
2019-01-04T00:34:50.751Z,-1.00
2019-01-04T00:35:50.466Z,-1.02
2019-01-04T00:36:50.765Z,-1.03
2019-01-04T00:37:51.289Z,-1.02
2019-01-04T00:38:51.025Z,-1.04
2019-01-04T00:39:51.497Z,-1.04
2019-01-04T00:40:54.319Z,-1.04
2019-01-04T00:41:52.013Z,-1.07
2019-01-04T00:42:52.116Z,-1.07
2019-01-04T00:43:52.110Z,-1.07
2019-01-04T00:44:52.397Z,-1.08
2019-01-04T00:45:52.569Z,-1.11
2019-01-04T00:46:52.881Z,-1.12
2019-01-04T00:47:52.957Z,-1.15
2019-01-04T00:48:53.015Z,-1.17
2019-01-04T00:49:53.069Z,-1.19
2019-01-04T00:50:53.911Z,-1.19
2019-01-04T00:51:53.496Z,-1.21
2019-01-04T00:52:53.597Z,-1.25
2019-01-04T00:53:53.734Z,-1.26
2019-01-04T00:54:54.079Z,-1.25
2019-01-04T00:56:54.326Z,-1.24
2019-01-04T00:57:54.361Z,-1.22
2019-01-04T00:58:54.438Z,-1.23
2019-01-04T00:59:54.468Z,-1.23
2019-01-04T01:00:54.610Z,-1.25
2019-01-04T01:01:54.747Z,-1.25
2019-01-04T01:02:54.821Z,-1.26
2019-01-04T01:03:54.857Z,-1.28
2019-01-04T01:04:55.264Z,-1.30
2019-01-04T01:05:55.706Z,-1.34
2019-01-04T01:06:55.833Z,-1.35
2019-01-04T01:07:56.053Z,-1.37
2019-01-04T01:08:56.351Z,-1.38
2019-01-04T01:09:56.439Z,-1.40
2019-01-04T01:10:56.544Z,-1.43
2019-01-04T01:11:57.166Z,-1.45
2019-01-04T01:12:56.902Z,-1.46
2019-01-04T01:13:57.259Z,-1.46
2019-01-04T01:14:57.382Z,-1.47
2019-01-04T01:15:57.605Z,-1.49
2019-01-04T01:16:57.500Z,-1.50
2019-01-04T01:17:57.831Z,-1.53
2019-01-04T01:18:58.163Z,-1.53
2019-01-04T01:19:58.545Z,-1.55
2019-01-04T01:20:58.348Z,-1.55
2019-01-04T01:21:58.725Z,-1.55
2019-01-04T01:22:58.561Z,-1.55
2019-01-04T01:23:59.056Z,-1.55
2019-01-04T01:24:59.227Z,-1.54
2019-01-04T01:25:59.491Z,-1.53
2019-01-04T01:26:59.619Z,-1.52
2019-01-04T01:27:59.865Z,-1.53
2019-01-04T01:29:00.137Z,-1.52
2019-01-04T01:30:00.252Z,-1.53
2019-01-04T01:31:00.500Z,-1.52
2019-01-04T01:32:01.031Z,-1.52
2019-01-04T01:33:00.855Z,-1.52
2019-01-04T01:34:00.690Z,-1.52
2019-01-04T01:35:01.245Z,-1.52
2019-01-04T01:36:01.379Z,-1.51
2019-01-04T01:37:01.295Z,-1.49
2019-01-04T01:38:01.507Z,-1.48
2019-01-04T01:39:02.237Z,-1.43
2019-01-04T01:40:02.643Z,-1.41
2019-01-04T01:41:03.167Z,-1.36
2019-01-04T01:42:03.583Z,-1.35
2019-01-04T01:43:03.483Z,-1.33
2019-01-04T01:44:03.600Z,-1.33
2019-01-04T01:45:04.004Z,-1.32
2019-01-04T01:46:04.627Z,-1.32
2019-01-04T01:47:04.633Z,-1.33
2019-01-04T01:48:05.156Z,-1.35
2019-01-04T01:49:05.575Z,-1.35
2019-01-04T01:50:05.369Z,-1.35
2019-01-04T01:51:06.100Z,-1.36
2019-01-04T01:52:05.999Z,-1.36
2019-01-04T01:53:06.411Z,-1.36
2019-01-04T01:54:06.739Z,-1.35
2019-01-04T01:55:06.836Z,-1.37
2019-01-04T01:56:07.036Z,-1.37
2019-01-04T01:57:07.053Z,-1.38
2019-01-04T01:58:07.236Z,-1.39
2019-01-04T01:59:07.358Z,-1.39
2019-01-04T02:00:07.379Z,-1.43
2019-01-04T02:01:07.286Z,-1.44
2019-01-04T02:02:07.425Z,-1.45
2019-01-04T02:03:07.552Z,-1.43
2019-01-04T02:04:07.675Z,-1.43
2019-01-04T02:05:07.438Z,-1.42
2019-01-04T02:06:07.907Z,-1.38
2019-01-04T02:07:08.170Z,-1.34
2019-01-04T02:08:08.553Z,-1.34
2019-01-04T02:09:09.118Z,-1.31
2019-01-04T02:10:08.909Z,-1.30
2019-01-04T02:11:09.218Z,-1.30
2019-01-04T02:12:09.637Z,-1.27
2019-01-04T02:13:10.069Z,-1.27
2019-01-04T02:14:10.368Z,-1.26
2019-01-04T02:15:11.273Z,-1.25
2019-01-04T02:16:11.097Z,-1.24
2019-01-04T02:17:11.351Z,-1.21
2019-01-04T02:18:11.694Z,-1.20
2019-01-04T02:19:11.945Z,-1.18
2019-01-04T02:20:12.438Z,-1.17
2019-01-04T02:21:12.941Z,-1.14
2019-01-04T02:22:13.181Z,-1.13
2019-01-04T02:23:13.680Z,-1.12
2019-01-04T02:24:14.195Z,-1.10
2019-01-04T02:25:14.298Z,-1.07
2019-01-04T02:26:14.188Z,-1.06
2019-01-04T02:27:14.448Z,-1.06
2019-01-04T02:28:14.859Z,-1.05
2019-01-04T02:29:15.213Z,-1.03
2019-01-04T02:30:16.382Z,-1.02
2019-01-04T02:31:15.714Z,-1.00
2019-01-04T02:32:16.148Z,-1.00
2019-01-04T02:33:16.451Z,-1.00
2019-01-04T02:34:16.859Z,-1.00
2019-01-04T02:35:17.170Z,-0.99
2019-01-04T02:36:17.441Z,-0.99
2019-01-04T02:37:17.802Z,-0.99
2019-01-04T02:38:18.689Z,-1.00
2019-01-04T02:39:19.430Z,-1.02
2019-01-04T02:40:19.515Z,-1.02
2019-01-04T02:41:19.932Z,-1.04
2019-01-04T02:42:20.245Z,-1.03
2019-01-04T02:43:20.654Z,-1.04
2019-01-04T02:44:20.888Z,-1.05
2019-01-04T02:45:21.168Z,-1.05
2019-01-04T02:46:21.401Z,-1.05
2019-01-04T02:47:21.612Z,-1.08
2019-01-04T02:48:21.825Z,-1.08
2019-01-04T02:49:21.921Z,-1.11
2019-01-04T02:50:22.029Z,-1.11
2019-01-04T02:51:22.035Z,-1.11
2019-01-04T02:52:22.294Z,-1.11
2019-01-04T02:53:22.407Z,-1.10
2019-01-04T02:54:22.511Z,-1.10
2019-01-04T02:55:22.622Z,-1.10
2019-01-04T02:56:22.662Z,-1.11
2019-01-04T02:57:22.720Z,-1.11
2019-01-04T02:58:22.837Z,-1.11
2019-01-04T02:59:22.990Z,-1.10
2019-01-04T03:00:23.110Z,-1.11
2019-01-04T03:01:23.240Z,-1.13
2019-01-04T03:02:23.302Z,-1.12
2019-01-04T03:03:23.453Z,-1.10
2019-01-04T03:04:23.545Z,-1.08
2019-01-04T03:05:23.941Z,-1.06
2019-01-04T03:06:24.197Z,-1.05
2019-01-04T03:07:24.249Z,-1.02
2019-01-04T03:08:24.324Z,-0.99
2019-01-04T03:09:24.480Z,-0.95
2019-01-04T03:10:24.627Z,-0.94
2019-01-04T03:11:24.593Z,-0.86
2019-01-04T03:12:24.989Z,-0.82
2019-01-04T03:13:25.303Z,-0.78
2019-01-04T03:14:25.646Z,-0.76
2019-01-04T03:15:26.101Z,-0.75
2019-01-04T03:16:26.465Z,-0.74
2019-01-04T03:17:26.917Z,-0.73
2019-01-04T03:18:27.190Z,-0.72
2019-01-04T03:19:27.760Z,-0.71
2019-01-04T03:20:27.824Z,-0.71
2019-01-04T03:21:27.663Z,-0.69
2019-01-04T03:22:27.905Z,-0.67
2019-01-04T03:23:28.222Z,-0.66
2019-01-04T03:24:28.587Z,-0.65
2019-01-04T03:25:28.851Z,-0.64
2019-01-04T03:26:29.099Z,-0.61
2019-01-04T03:27:29.693Z,-0.58
2019-01-04T03:28:29.515Z,-0.56
2019-01-04T03:29:29.822Z,-0.55
2019-01-04T03:30:30.531Z,-0.53
2019-01-04T03:31:30.256Z,-0.50
2019-01-04T03:32:30.711Z,-0.47
2019-01-04T03:33:31.053Z,-0.44
2019-01-04T03:34:31.358Z,-0.42
2019-01-04T03:35:31.865Z,-0.40
2019-01-04T03:36:32.335Z,-0.38
2019-01-04T03:37:32.618Z,-0.38
2019-01-04T03:38:33.110Z,-0.34
2019-01-04T03:39:34.550Z,-0.33
2019-01-04T03:40:34.770Z,-0.32
2019-01-04T03:41:35.180Z,-0.31
2019-01-04T03:42:35.696Z,-0.28
2019-01-04T03:43:35.602Z,-0.28
2019-01-04T03:44:36.014Z,-0.27
2019-01-04T03:45:36.125Z,-0.26
2019-01-04T03:46:36.648Z,-0.24
2019-01-04T03:47:36.647Z,-0.24
2019-01-04T03:48:36.274Z,-0.23
2019-01-04T03:49:36.354Z,-0.23
2019-01-04T03:50:36.468Z,-0.23
2019-01-04T03:52:36.783Z,-0.23
2019-01-04T03:53:36.880Z,-0.23
2019-01-04T03:54:36.878Z,-0.22
2019-01-04T03:55:37.277Z,-0.22
2019-01-04T03:56:37.542Z,-0.21
2019-01-04T03:57:37.717Z,-0.21
2019-01-04T03:58:37.795Z,-0.19
2019-01-04T03:59:37.957Z,-0.19
2019-01-04T04:00:38.272Z,-0.18
2019-01-04T04:01:38.555Z,-0.16
2019-01-04T04:02:38.772Z,-0.17
2019-01-04T04:03:38.948Z,-0.16
2019-01-04T04:04:39.031Z,-0.15
2019-01-04T04:05:39.137Z,-0.14
2019-01-04T04:06:39.090Z,-0.13
2019-01-04T04:07:39.343Z,-0.11
2019-01-04T04:08:39.720Z,-0.11
2019-01-04T04:09:39.991Z,-0.09
2019-01-04T04:10:40.787Z,-0.08
2019-01-04T04:11:40.714Z,-0.06
2019-01-04T04:12:41.182Z,-0.04
2019-01-04T04:13:41.493Z,-0.03
2019-01-04T04:14:41.882Z,-0.03
2019-01-04T04:15:42.351Z,-0.02
2019-01-04T04:16:42.283Z,-0.02
2019-01-04T04:17:42.769Z,0.00
2019-01-04T04:18:43.118Z,0.01
2019-01-04T04:19:43.111Z,0.01
2019-01-04T04:20:43.805Z,0.03
2019-01-04T04:21:43.663Z,0.05
2019-01-04T04:22:44.153Z,0.09
2019-01-04T04:23:44.421Z,0.09
2019-01-04T04:24:44.890Z,0.12
2019-01-04T04:25:45.234Z,0.14
2019-01-04T04:26:45.723Z,0.15
2019-01-04T04:27:46.107Z,0.18
2019-01-04T04:28:46.391Z,0.18
2019-01-04T04:29:46.791Z,0.19
2019-01-04T04:30:47.350Z,0.19
2019-01-04T04:31:47.231Z,0.19
2019-01-04T04:32:47.733Z,0.19
2019-01-04T04:33:48.462Z,0.21
2019-01-04T04:34:49.428Z,0.21
2019-01-04T04:35:49.703Z,0.21
2019-01-04T04:36:50.153Z,0.21
2019-01-04T04:37:50.478Z,0.22
2019-01-04T04:38:50.996Z,0.22
2019-01-04T04:39:50.993Z,0.23
2019-01-04T04:40:51.304Z,0.23
2019-01-04T04:41:51.420Z,0.25
2019-01-04T04:42:51.533Z,0.25
2019-01-04T04:43:51.582Z,0.27
2019-01-04T04:44:51.749Z,0.28
2019-01-04T04:45:51.760Z,0.28
2019-01-04T04:46:52.447Z,0.28
2019-01-04T04:47:52.389Z,0.29
2019-01-04T04:48:52.735Z,0.29
2019-01-04T04:49:52.925Z,0.29
2019-01-04T04:50:52.854Z,0.29
2019-01-04T04:51:53.763Z,0.30
2019-01-04T04:52:53.990Z,0.30
2019-01-04T04:53:54.134Z,0.31
2019-01-04T04:54:54.338Z,0.31
2019-01-04T04:55:54.650Z,0.32
2019-01-04T04:56:54.766Z,0.33
2019-01-04T04:57:54.798Z,0.33
2019-01-04T04:58:54.683Z,0.33
2019-01-04T04:59:55.063Z,0.34
2019-01-04T05:00:55.414Z,0.33
2019-01-04T05:01:55.810Z,0.34
2019-01-04T05:02:56.132Z,0.34
2019-01-04T05:03:57.653Z,0.35
2019-01-04T05:04:56.569Z,0.36
2019-01-04T05:05:56.941Z,0.37
2019-01-04T05:06:57.599Z,0.38
2019-01-04T05:07:57.469Z,0.38
2019-01-04T05:08:57.793Z,0.39
2019-01-04T05:09:58.092Z,0.39
2019-01-04T05:10:58.427Z,0.40
2019-01-04T05:11:59.052Z,0.40
2019-01-04T05:12:58.916Z,0.40
2019-01-04T05:13:59.360Z,0.39
2019-01-04T05:14:59.867Z,0.38
2019-01-04T05:16:00.268Z,0.38
2019-01-04T05:17:00.980Z,0.39
2019-01-04T05:18:01.071Z,0.39
2019-01-04T05:19:00.939Z,0.40
2019-01-04T05:20:01.879Z,0.40
2019-01-04T05:21:02.199Z,0.40
2019-01-04T05:22:02.538Z,0.40
2019-01-04T05:23:02.434Z,0.41
2019-01-04T05:24:03.780Z,0.41
2019-01-04T05:25:04.272Z,0.41
2019-01-04T05:26:04.603Z,0.41
2019-01-04T05:27:05.034Z,0.43
2019-01-04T05:28:05.237Z,0.42
2019-01-04T05:29:05.650Z,0.42
2019-01-04T05:30:06.171Z,0.41
2019-01-04T05:31:06.585Z,0.41
2019-01-04T05:32:06.807Z,0.39
2019-01-04T05:33:06.972Z,0.38
2019-01-04T05:34:07.003Z,0.38
2019-01-04T05:35:07.022Z,0.35
2019-01-04T05:36:07.324Z,0.34
2019-01-04T05:37:07.159Z,0.35
2019-01-04T05:39:07.457Z,0.34
2019-01-04T05:40:07.351Z,0.32
2019-01-04T05:41:07.910Z,0.30
2019-01-04T05:42:07.681Z,0.27
2019-01-04T05:43:08.129Z,0.25
2019-01-04T05:44:08.765Z,0.23
2019-01-04T05:45:08.864Z,0.19
2019-01-04T05:46:08.675Z,0.16
2019-01-04T05:47:09.010Z,0.14
2019-01-04T05:48:09.882Z,0.12
2019-01-04T05:49:10.159Z,0.10
2019-01-04T05:50:10.043Z,0.08
2019-01-04T05:52:10.416Z,0.05
2019-01-04T05:53:10.930Z,0.02
2019-01-04T05:54:11.443Z,-0.02
2019-01-04T05:55:11.296Z,-0.06
2019-01-04T05:56:11.836Z,-0.11
2019-01-04T05:57:11.875Z,-0.15
2019-01-04T06:08:13.895Z,-0.38
2019-01-04T06:09:14.010Z,-0.38
2019-01-04T06:15:15.373Z,-0.47
2019-01-04T06:16:15.361Z,-0.52
2019-01-04T06:17:15.752Z,-0.55
2019-01-04T06:18:16.136Z,-0.57
2019-01-04T06:19:16.457Z,-0.58
2019-01-04T06:20:17.119Z,-0.60
2019-01-04T06:21:17.141Z,-0.59
2019-01-04T06:22:17.000Z,-0.60
2019-01-04T06:23:17.438Z,-0.59
2019-01-04T06:24:17.511Z,-0.59
2019-01-04T06:25:17.850Z,-0.59
2019-01-04T06:26:18.828Z,-0.61
2019-01-04T06:27:19.545Z,-0.62
2019-01-04T06:28:19.551Z,-0.63
2019-01-04T06:29:20.308Z,-0.64
2019-01-04T06:30:20.894Z,-0.65
2019-01-04T06:31:20.799Z,-0.67
2019-01-04T06:32:21.053Z,-0.68
2019-01-04T06:33:21.224Z,-0.70
2019-01-04T06:34:21.443Z,-0.71
2019-01-04T06:35:21.649Z,-0.72
2019-01-04T06:36:21.751Z,-0.76
2019-01-04T06:37:21.953Z,-0.77
2019-01-04T06:38:21.953Z,-0.77
2019-01-04T06:39:22.068Z,-0.78
2019-01-04T06:40:21.969Z,-0.78
2019-01-04T06:41:22.361Z,-0.78
2019-01-04T06:42:22.561Z,-0.77
2019-01-04T06:43:22.662Z,-0.74
2019-01-04T06:44:22.734Z,-0.72
2019-01-04T06:45:22.818Z,-0.72
2019-01-04T06:46:23.021Z,-0.71
2019-01-04T06:47:23.259Z,-0.72
2019-01-04T06:48:23.456Z,-0.70
2019-01-04T06:49:23.660Z,-0.70
2019-01-04T06:50:23.782Z,-0.69
2019-01-04T06:51:27.702Z,-0.68
2019-01-04T06:52:24.096Z,-0.66
2019-01-04T06:53:24.145Z,-0.64
2019-01-04T06:54:24.162Z,-0.64
2019-01-04T06:55:24.880Z,-0.61
2019-01-04T06:56:24.546Z,-0.57
2019-01-04T06:57:24.812Z,-0.53
2019-01-04T06:58:25.128Z,-0.50
2019-01-04T06:59:25.482Z,-0.47
2019-01-04T07:00:25.755Z,-0.46
2019-01-04T07:01:26.305Z,-0.45
2019-01-04T07:02:26.153Z,-0.45
2019-01-04T07:03:26.421Z,-0.42
2019-01-04T07:04:27.019Z,-0.41
2019-01-04T07:05:27.141Z,-0.40
2019-01-04T07:06:27.027Z,-0.39
2019-01-04T07:07:27.319Z,-0.36
2019-01-04T07:08:27.908Z,-0.35
2019-01-04T07:09:27.770Z,-0.35
2019-01-04T07:10:28.216Z,-0.32
2019-01-04T07:11:28.495Z,-0.29
2019-01-04T07:12:29.223Z,-0.29
2019-01-04T07:13:29.130Z,-0.28
2019-01-04T07:14:29.579Z,-0.28
2019-01-04T07:15:29.969Z,-0.27
2019-01-04T07:17:30.324Z,-0.28
2019-01-04T07:18:30.699Z,-0.27
2019-01-04T07:19:31.125Z,-0.25
2019-01-04T07:20:31.534Z,-0.25
2019-01-04T07:21:31.811Z,-0.24
2019-01-04T07:22:32.118Z,-0.24
2019-01-04T07:23:32.491Z,-0.24
2019-01-04T07:24:33.038Z,-0.23
2019-01-04T07:25:33.236Z,-0.23
2019-01-04T07:26:33.346Z,-0.23
2019-01-04T07:27:33.963Z,-0.23
2019-01-04T07:28:34.277Z,-0.23
2019-01-04T07:29:34.401Z,-0.23
2019-01-04T07:30:34.909Z,-0.24
2019-01-04T07:31:34.604Z,-0.24
2019-01-04T07:32:34.954Z,-0.25
2019-01-04T07:33:35.157Z,-0.24
2019-01-04T07:34:35.556Z,-0.25
2019-01-04T07:35:35.971Z,-0.26
2019-01-04T07:36:36.092Z,-0.26
2019-01-04T07:37:36.300Z,-0.25
2019-01-04T07:38:36.494Z,-0.26
2019-01-04T07:40:36.584Z,-0.26
2019-01-04T07:41:36.941Z,-0.27
2019-01-04T07:42:37.120Z,-0.27
2019-01-04T07:43:37.197Z,-0.27
2019-01-04T07:44:37.137Z,-0.27
2019-01-04T07:45:37.756Z,-0.26
2019-01-04T07:46:37.573Z,-0.25
2019-01-04T07:47:37.875Z,-0.25
2019-01-04T07:48:38.231Z,-0.24
2019-01-04T07:49:38.386Z,-0.23
2019-01-04T07:50:38.769Z,-0.22
2019-01-04T07:51:39.075Z,-0.20
2019-01-04T07:52:39.347Z,-0.19
2019-01-04T07:53:39.443Z,-0.18
2019-01-04T07:54:39.276Z,-0.16
2019-01-04T07:55:39.548Z,-0.15
2019-01-04T07:56:39.792Z,-0.14
2019-01-04T07:57:40.339Z,-0.13
2019-01-04T07:58:40.076Z,-0.12
2019-01-04T07:59:40.417Z,-0.11
2019-01-04T08:00:40.859Z,-0.10
2019-01-04T08:01:49.961Z,-0.09
2019-01-04T08:02:41.601Z,-0.08
2019-01-04T08:03:41.354Z,-0.07
2019-01-04T08:05:41.732Z,-0.06
2019-01-04T08:06:42.243Z,-0.05
2019-01-04T08:07:42.212Z,-0.04
2019-01-04T08:08:42.457Z,-0.03
2019-01-04T08:09:43.088Z,-0.02
2019-01-04T08:10:42.948Z,-0.01
2019-01-04T08:11:43.302Z,0.00
2019-01-04T08:12:43.657Z,0.02
2019-01-04T08:13:44.038Z,0.03
2019-01-04T08:14:44.432Z,0.04
2019-01-04T08:15:44.799Z,0.05
2019-01-04T08:16:45.441Z,0.06
2019-01-04T08:17:45.290Z,0.08
2019-01-04T08:18:45.747Z,0.09
2019-01-04T08:19:46.171Z,0.10
2019-01-04T08:20:46.491Z,0.12
2019-01-04T08:21:46.912Z,0.13
2019-01-04T08:22:47.302Z,0.15
2019-01-04T08:23:47.712Z,0.17
2019-01-04T08:24:48.778Z,0.19
2019-01-04T08:25:48.828Z,0.21
2019-01-04T08:26:48.689Z,0.23
2019-01-04T08:27:49.333Z,0.26
2019-01-04T08:28:49.627Z,0.28
2019-01-04T08:29:50.003Z,0.30
2019-01-04T08:30:50.356Z,0.33
2019-01-04T08:31:50.872Z,0.34
2019-01-04T08:32:50.884Z,0.36
2019-01-04T08:33:50.757Z,0.38
2019-01-04T08:34:50.908Z,0.40
2019-01-04T08:35:51.041Z,0.42
2019-01-04T08:36:51.313Z,0.44
2019-01-04T08:37:51.432Z,0.45
2019-01-04T08:38:51.835Z,0.46
2019-01-04T08:39:51.927Z,0.47
2019-01-04T08:40:51.937Z,0.48
2019-01-04T08:41:52.365Z,0.49
2019-01-04T08:42:52.576Z,0.50
2019-01-04T08:43:52.669Z,0.51
2019-01-04T08:44:52.829Z,0.51
2019-01-04T08:45:52.922Z,0.52
2019-01-04T08:46:53.221Z,0.52
2019-01-04T08:47:53.437Z,0.53
2019-01-04T08:48:53.604Z,0.55
2019-01-04T08:49:53.877Z,0.56
2019-01-04T08:50:53.957Z,0.58
2019-01-04T08:51:53.950Z,0.59
2019-01-04T08:52:54.645Z,0.62
2019-01-04T08:53:54.539Z,0.64
2019-01-04T08:54:54.999Z,0.66
2019-01-04T08:55:54.812Z,0.68
2019-01-04T08:56:55.230Z,0.70
2019-01-04T08:57:55.585Z,0.72
2019-01-04T08:58:56.143Z,0.74
2019-01-04T08:59:56.113Z,0.76
2019-01-04T09:00:56.662Z,0.77
2019-01-04T09:01:56.795Z,0.79
2019-01-04T09:02:56.731Z,0.81
2019-01-04T09:03:57.186Z,0.82
2019-01-04T09:04:57.448Z,0.83
2019-01-04T09:05:57.885Z,0.84
2019-01-04T09:06:58.234Z,0.85
2019-01-04T09:07:58.638Z,0.86
2019-01-04T09:08:59.096Z,0.88
2019-01-04T09:09:59.470Z,0.89
2019-01-04T09:10:59.981Z,0.91
2019-01-04T09:12:00.140Z,0.94
2019-01-04T09:12:59.985Z,0.95
2019-01-04T09:14:00.301Z,0.97
2019-01-04T09:15:01.059Z,1.00
2019-01-04T09:16:00.989Z,1.02
2019-01-04T09:17:00.786Z,1.05
2019-01-04T09:18:01.102Z,1.08
2019-01-04T09:19:02.112Z,1.11
2019-01-04T09:20:02.137Z,1.15
2019-01-04T09:21:02.349Z,1.18
2019-01-04T09:22:02.674Z,1.22
2019-01-04T09:23:02.758Z,1.26
2019-01-04T09:24:03.605Z,1.32
2019-01-04T09:25:03.403Z,1.38
2019-01-04T09:26:03.953Z,1.45
2019-01-04T09:27:04.251Z,1.54
2019-01-04T09:28:04.517Z,1.62
2019-01-04T09:29:05.064Z,1.70
2019-01-04T09:30:04.767Z,1.76
2019-01-04T09:31:05.084Z,1.83
2019-01-04T09:32:05.317Z,1.89
2019-01-04T09:33:05.808Z,1.96
2019-01-04T09:34:06.224Z,2.02
2019-01-04T09:35:06.645Z,2.09
2019-01-04T09:36:06.858Z,2.14
2019-01-04T09:37:07.066Z,2.22
2019-01-04T09:38:07.277Z,2.30
2019-01-04T09:39:07.164Z,2.39
2019-01-04T09:40:07.379Z,2.47
2019-01-04T09:41:07.948Z,2.55
2019-01-04T09:42:07.843Z,2.60
2019-01-04T09:43:07.798Z,2.62
2019-01-04T09:44:08.678Z,2.66
2019-01-04T09:45:09.007Z,2.72
2019-01-04T09:46:09.145Z,2.81
2019-01-04T09:47:09.374Z,2.93
2019-01-04T09:48:09.121Z,3.01
2019-01-04T09:49:09.534Z,3.06
2019-01-04T09:50:09.851Z,3.05
2019-01-04T09:51:10.248Z,3.13
2019-01-04T09:52:10.610Z,3.22
2019-01-04T09:53:11.076Z,3.28
2019-01-04T09:54:11.744Z,3.33
2019-01-04T09:55:11.610Z,3.37
2019-01-04T09:56:11.978Z,3.41
2019-01-04T09:57:12.283Z,3.44
2019-01-04T09:58:12.562Z,3.53
2019-01-04T09:59:15.533Z,3.62
2019-01-04T10:00:13.393Z,3.69
2019-01-04T10:01:13.980Z,3.71
2019-01-04T10:02:14.442Z,3.69
2019-01-04T10:03:14.757Z,3.69
2019-01-04T10:04:15.242Z,3.69
2019-01-04T10:05:15.606Z,3.68
2019-01-04T10:06:15.937Z,3.67
2019-01-04T10:07:15.742Z,3.69
2019-01-04T10:08:16.387Z,3.78
2019-01-04T10:09:16.648Z,3.89
2019-01-04T10:10:17.088Z,3.96
2019-01-04T10:11:17.243Z,4.05
2019-01-04T10:12:17.093Z,4.17
2019-01-04T10:13:17.530Z,4.28
2019-01-04T10:14:17.968Z,4.35
2019-01-04T10:15:19.093Z,4.42
2019-01-04T10:16:19.194Z,4.48
2019-01-04T10:17:19.275Z,4.60
2019-01-04T10:18:19.661Z,4.73
2019-01-04T10:19:19.971Z,4.88
2019-01-04T10:20:20.360Z,5.04
2019-01-04T10:21:20.730Z,5.18
2019-01-04T10:22:21.110Z,5.29
2019-01-04T10:23:20.924Z,5.32
2019-01-04T10:24:21.911Z,5.30
2019-01-04T10:25:21.964Z,5.28
2019-01-04T10:26:22.185Z,5.32
2019-01-04T10:27:22.759Z,5.35
2019-01-04T10:28:22.503Z,5.37
2019-01-04T10:29:22.637Z,5.37
2019-01-04T10:30:23.075Z,5.35
2019-01-04T10:31:23.115Z,5.33
2019-01-04T10:32:23.517Z,5.33
2019-01-04T10:33:23.707Z,5.34
2019-01-04T10:34:24.096Z,5.39
2019-01-04T10:35:24.060Z,5.47
2019-01-04T10:36:24.581Z,5.55
2019-01-04T10:37:24.396Z,5.61
2019-01-04T10:38:24.688Z,5.64
2019-01-04T10:39:25.033Z,5.69
2019-01-04T10:40:25.679Z,5.75
2019-01-04T10:41:25.773Z,5.82
2019-01-04T10:42:25.659Z,5.90
2019-01-04T10:43:26.144Z,5.98
2019-01-04T10:44:25.988Z,6.06
2019-01-04T10:45:26.339Z,6.10
2019-01-04T10:46:26.786Z,6.16
2019-01-04T10:47:27.355Z,6.20
2019-01-04T10:49:27.496Z,6.23
2019-01-04T10:50:27.372Z,6.21
2019-01-04T10:51:27.749Z,6.16
2019-01-04T10:52:28.034Z,6.11
2019-01-04T10:53:28.314Z,6.05
2019-01-04T10:54:28.702Z,6.03
2019-01-04T10:55:29.254Z,6.06
2019-01-04T10:56:29.361Z,6.09
2019-01-04T10:58:29.241Z,6.14
2019-01-04T10:59:29.547Z,6.26
2019-01-04T11:00:29.861Z,6.34
2019-01-04T11:01:30.188Z,6.41
2019-01-04T11:02:30.497Z,6.37
2019-01-04T11:03:30.785Z,6.41
2019-01-04T11:04:31.055Z,6.43
2019-01-04T11:05:31.431Z,6.40
2019-01-04T11:06:31.686Z,6.39
2019-01-04T11:07:31.936Z,6.36
2019-01-04T11:08:32.271Z,6.32
2019-01-04T11:09:32.668Z,6.30
2019-01-04T11:10:34.705Z,6.35
2019-01-04T11:11:33.076Z,6.38
2019-01-04T11:12:34.001Z,6.45
2019-01-04T11:13:35.035Z,6.49
2019-01-04T11:14:34.526Z,6.55
2019-01-04T11:15:34.947Z,6.60
2019-01-04T11:16:35.354Z,6.60
2019-01-04T11:17:35.672Z,6.61
2019-01-04T11:18:35.805Z,6.61
2019-01-04T11:19:36.032Z,6.62
2019-01-04T11:20:36.149Z,6.63
2019-01-04T11:21:36.084Z,6.61
2019-01-04T11:22:36.212Z,6.63
2019-01-04T11:23:36.521Z,6.68
2019-01-04T11:24:36.798Z,6.72
2019-01-04T11:25:37.161Z,6.75
2019-01-04T11:26:37.367Z,6.76
2019-01-04T11:27:37.411Z,6.75
2019-01-04T11:28:37.531Z,6.74
2019-01-04T11:29:37.799Z,6.69
2019-01-04T11:30:38.225Z,6.65
2019-01-04T11:31:38.726Z,6.63
2019-01-04T11:32:38.795Z,6.60
2019-01-04T11:33:39.004Z,6.59
2019-01-04T11:34:39.040Z,6.54
2019-01-04T11:35:39.219Z,6.54
2019-01-04T11:36:39.436Z,6.52
2019-01-04T11:37:39.557Z,6.53
2019-01-04T11:38:39.930Z,6.55
2019-01-04T11:39:40.045Z,6.57
2019-01-04T11:40:40.454Z,6.58
2019-01-04T11:41:40.925Z,6.56
2019-01-04T11:42:41.087Z,6.49
2019-01-04T11:43:41.504Z,6.48
2019-01-04T11:44:41.887Z,6.48
2019-01-04T11:45:41.823Z,6.48
2019-01-04T11:46:42.015Z,6.50
2019-01-04T11:47:41.833Z,6.47
2019-01-04T11:48:42.335Z,6.49
2019-01-04T11:49:42.574Z,6.53
2019-01-04T11:50:42.511Z,6.54
2019-01-04T11:51:42.778Z,6.54
2019-01-04T11:52:43.252Z,6.55
2019-01-04T11:53:43.519Z,6.54
2019-01-04T11:54:43.864Z,6.53
2019-01-04T11:55:44.158Z,6.53
2019-01-04T11:56:44.652Z,6.54
2019-01-04T11:57:45.159Z,6.55
2019-01-04T11:58:45.183Z,6.55
2019-01-04T11:59:45.449Z,6.54
2019-01-04T12:00:46.065Z,6.54
2019-01-04T12:01:46.511Z,6.54
2019-01-04T12:02:46.448Z,6.55
2019-01-04T12:03:46.796Z,6.56
2019-01-04T12:04:47.425Z,6.57
2019-01-04T12:05:47.792Z,6.57
2019-01-04T12:06:48.726Z,6.57
2019-01-04T12:07:49.328Z,6.57
2019-01-04T12:08:49.558Z,6.57
2019-01-04T12:09:49.834Z,6.58
2019-01-04T12:10:50.257Z,6.59
2019-01-04T12:11:50.486Z,6.61
2019-01-04T12:13:51.204Z,6.62
2019-01-04T12:14:50.806Z,6.61
2019-01-04T12:15:51.418Z,6.59
2019-01-04T12:16:51.106Z,6.58
2019-01-04T12:17:51.524Z,6.58
2019-01-04T12:18:51.531Z,6.58
2019-01-04T12:19:51.434Z,6.58
2019-01-04T12:20:52.068Z,6.58
2019-01-04T12:21:52.151Z,6.57
2019-01-04T12:22:52.498Z,6.55
2019-01-04T12:23:52.379Z,6.52
2019-01-04T12:24:52.681Z,6.49
2019-01-04T12:25:53.012Z,6.46
2019-01-04T12:26:53.227Z,6.43
2019-01-04T12:27:53.516Z,6.41
2019-01-04T12:28:53.604Z,6.39
2019-01-04T12:29:54.153Z,6.38
2019-01-04T12:30:54.568Z,6.39
2019-01-04T12:31:54.447Z,6.39
2019-01-04T12:32:54.837Z,6.39
2019-01-04T12:33:55.122Z,6.38
2019-01-04T12:34:55.390Z,6.37
2019-01-04T12:35:55.698Z,6.36
2019-01-04T12:36:56.201Z,6.34
2019-01-04T12:37:55.999Z,6.33
2019-01-04T12:38:56.303Z,6.31
2019-01-04T12:39:56.621Z,6.28
2019-01-04T12:40:56.970Z,6.28
2019-01-04T12:41:57.267Z,6.26
2019-01-04T12:42:57.525Z,6.26
2019-01-04T12:43:57.805Z,6.27
2019-01-04T12:44:58.327Z,6.27
2019-01-04T12:45:58.753Z,6.26
2019-01-04T12:46:59.198Z,6.25
2019-01-04T12:47:59.724Z,6.23
2019-01-04T12:48:59.769Z,6.21
2019-01-04T12:50:00.082Z,6.20
2019-01-04T12:51:00.488Z,6.18
2019-01-04T12:52:05.558Z,6.16
2019-01-04T12:53:01.217Z,6.14
2019-01-04T12:55:01.373Z,6.08
2019-01-04T12:56:01.456Z,6.04
2019-01-04T12:57:02.241Z,6.02
2019-01-04T12:58:02.533Z,6.01
2019-01-04T12:59:02.554Z,6.00
2019-01-04T13:00:03.742Z,5.98
2019-01-04T13:01:02.840Z,5.96
2019-01-04T13:02:03.288Z,5.97
2019-01-04T13:03:04.005Z,5.95
2019-01-04T13:04:04.111Z,5.94
2019-01-04T13:05:04.155Z,5.94
2019-01-04T13:06:04.120Z,5.94
2019-01-04T13:07:04.665Z,5.95
2019-01-04T13:08:04.851Z,5.94
2019-01-04T13:09:04.962Z,5.91
2019-01-04T13:10:05.079Z,5.88
2019-01-04T13:11:05.488Z,5.83
2019-01-04T13:12:05.707Z,5.81
2019-01-04T13:13:05.512Z,5.76
2019-01-04T13:14:06.329Z,5.73
2019-01-04T13:15:06.434Z,5.69
2019-01-04T13:16:06.749Z,5.65
2019-01-04T13:17:07.267Z,5.60
2019-01-04T13:18:06.882Z,5.60
2019-01-04T13:19:08.307Z,5.60
2019-01-04T13:20:06.880Z,5.60
2019-01-04T13:21:07.233Z,5.59
2019-01-04T13:22:07.442Z,5.59
2019-01-04T13:23:07.350Z,5.57
2019-01-04T13:24:07.775Z,5.57
2019-01-04T13:25:08.452Z,5.57
2019-01-04T13:26:09.093Z,5.53
2019-01-04T13:27:08.939Z,5.51
2019-01-04T13:28:09.098Z,5.51
2019-01-04T13:29:08.964Z,5.44
2019-01-04T13:30:09.749Z,5.46
2019-01-04T13:31:09.836Z,5.47
2019-01-04T13:33:09.760Z,5.42
2019-01-04T13:34:10.312Z,5.44
2019-01-04T13:35:10.971Z,5.42
2019-01-04T13:36:10.474Z,5.40
2019-01-04T13:37:10.317Z,5.40